Time;durP1;ratioP1;P1;durP2;ratioP2;P2;SDS_P1;SDS_P2;PMS_P1;PMS_P2;Temp;Humidity;BMP_temperature;BMP_pressure;BME280_temperature;BME280_humidity;BME280_pressure;Samples;Min_cycle;Max_cycle;Signal;HPM_P1;HPM_P2
2021/12/24 00:00:34;;;;;;;1.77;1.35;;;;;;;;;;4995596;28;20389;-68
2021/12/24 00:02:59;;;;;;;2.85;1.60;;;;;;;;;;5003840;28;20061;-68
2021/12/24 00:05:25;;;;;;;3.13;1.60;;;;;;;;;;4992187;28;20387;-68
2021/12/24 00:07:50;;;;;;;1.88;1.33;;;;;;;;;;4994869;28;20035;-68
2021/12/24 00:10:17;;;;;;;2.95;1.20;;;;;;;;;;4995373;28;20018;-68
2021/12/24 00:12:53;;;;;;;1.33;1.23;;;;;;;;;;5005384;28;20502;-68
2021/12/24 00:15:49;;;;;;;3.42;1.50;;;;;;;;;;4990562;28;20501;-68
2021/12/24 00:18:13;;;;;;;1.42;1.33;;;;;;;;;;4990666;28;20441;-68
2021/12/24 00:36:20;;;;;;;2.15;1.25;;;;;;;;;;4999655;28;20048;-69
2021/12/24 00:38:46;;;;;;;2.45;1.67;;;;;;;;;;5000289;28;20391;-69
2021/12/24 00:41:13;;;;;;;1.73;1.38;;;;;;;;;;5000308;28;20467;-69
2021/12/24 00:43:38;;;;;;;1.63;1.30;;;;;;;;;;5000767;28;20034;-69
2021/12/24 00:46:03;;;;;;;1.40;1.30;;;;;;;;;;4999067;28;20926;-69
2021/12/24 00:48:29;;;;;;;3.40;1.23;;;;;;;;;;4998830;28;20482;-70
2021/12/24 00:55:56;;;;;;;2.53;1.27;;;;;;;;;;4999394;28;20026;-69
2021/12/24 00:58:22;;;;;;;1.95;1.38;;;;;;;;;;4999553;28;20391;-69
2021/12/24 01:00:47;;;;;;;2.53;1.50;;;;;;;;;;4998739;28;20558;-69
2021/12/24 01:03:12;;;;;;;2.63;1.50;;;;;;;;;;4998977;28;20036;-69
2021/12/24 01:05:38;;;;;;;1.45;1.25;;;;;;;;;;4999776;28;20382;-69
2021/12/24 01:08:04;;;;;;;2.25;1.30;;;;;;;;;;4999904;28;20668;-69
2021/12/24 01:10:34;;;;;;;1.85;1.35;;;;;;;;;;4998338;28;20030;-69
2021/12/24 01:12:59;;;;;;;3.97;1.42;;;;;;;;;;4998746;28;20043;-69
2021/12/24 01:15:25;;;;;;;2.10;1.50;;;;;;;;;;4998965;28;20045;-69
2021/12/24 01:18:12;;;;;;;1.25;1.17;;;;;;;;;;4997865;28;20101;-69
2021/12/24 01:39:26;;;;;;;5.22;1.60;;;;;;;;;;4996143;28;20165;-69
2021/12/24 01:44:36;;;;;;;3.03;1.48;;;;;;;;;;4999870;28;20092;-69
2021/12/24 01:47:04;;;;;;;3.20;1.40;;;;;;;;;;5000733;28;20033;-69
2021/12/24 01:49:30;;;;;;;1.90;1.30;;;;;;;;;;4997730;28;20461;-69
2021/12/24 01:51:55;;;;;;;1.35;1.23;;;;;;;;;;4980447;28;20097;-69
2021/12/24 01:54:21;;;;;;;1.98;1.20;;;;;;;;;;4999501;28;20030;-69
2021/12/24 01:56:46;;;;;;;2.25;1.15;;;;;;;;;;4998534;28;20049;-69
2021/12/24 01:59:11;;;;;;;2.75;1.20;;;;;;;;;;4998743;28;20150;-69
2021/12/24 02:01:37;;;;;;;1.67;1.20;;;;;;;;;;4994885;28;20501;-69
2021/12/24 02:04:02;;;;;;;1.35;1.25;;;;;;;;;;4994267;28;20030;-70
2021/12/24 02:06:27;;;;;;;1.70;1.10;;;;;;;;;;4994942;28;20030;-69
2021/12/24 02:08:53;;;;;;;2.97;1.10;;;;;;;;;;4997806;28;20037;-69
2021/12/24 02:11:18;;;;;;;1.27;1.17;;;;;;;;;;4994181;28;20026;-69
2021/12/24 02:13:44;;;;;;;3.08;1.33;;;;;;;;;;4997453;28;20370;-69
2021/12/24 02:29:20;;;;;;;1.58;1.27;;;;;;;;;;4998512;28;20040;-69
2021/12/24 02:31:45;;;;;;;1.30;1.05;;;;;;;;;;4997905;28;20042;-69
2021/12/24 02:34:11;;;;;;;1.48;1.38;;;;;;;;;;4996242;28;20450;-69
2021/12/24 02:36:36;;;;;;;2.13;1.25;;;;;;;;;;4997623;28;20041;-69
2021/12/24 02:39:02;;;;;;;2.85;1.40;;;;;;;;;;4996087;28;20041;-69
2021/12/24 02:41:27;;;;;;;1.65;1.08;;;;;;;;;;4998463;28;20023;-69
2021/12/24 02:43:53;;;;;;;2.20;1.23;;;;;;;;;;4994617;28;20108;-69
2021/12/24 02:46:30;;;;;;;1.30;1.20;;;;;;;;;;4997739;28;20425;-69
2021/12/24 02:49:06;;;;;;;3.00;1.38;;;;;;;;;;4996808;28;20030;-69
2021/12/24 02:54:16;;;;;;;2.67;1.17;;;;;;;;;;4983064;28;20100;-69
2021/12/24 02:56:47;;;;;;;3.17;1.20;;;;;;;;;;4997058;28;20033;-69
2021/12/24 02:59:14;;;;;;;2.30;1.27;;;;;;;;;;4996874;28;20199;-69
2021/12/24 03:01:46;;;;;;;2.95;1.40;;;;;;;;;;4996056;28;20049;-69
2021/12/24 03:04:11;;;;;;;1.08;1.08;;;;;;;;;;4997399;28;20029;-69
2021/12/24 03:06:42;;;;;;;1.75;1.35;;;;;;;;;;4996831;28;20079;-69
2021/12/24 03:09:09;;;;;;;2.47;1.20;;;;;;;;;;4997699;28;20489;-69
2021/12/24 03:11:35;;;;;;;1.38;1.00;;;;;;;;;;4996274;28;20038;-69
2021/12/24 03:14:03;;;;;;;2.55;1.40;;;;;;;;;;4996683;28;21001;-69
2021/12/24 03:16:29;;;;;;;2.83;1.33;;;;;;;;;;4997074;28;20270;-69
2021/12/24 03:18:54;;;;;;;1.40;1.30;;;;;;;;;;4997393;28;20033;-69
2021/12/24 03:21:25;;;;;;;1.40;1.30;;;;;;;;;;4995586;28;20025;-69
2021/12/24 03:26:39;;;;;;;1.60;1.05;;;;;;;;;;4997487;28;20133;-69
2021/12/24 03:29:05;;;;;;;3.03;1.00;;;;;;;;;;4997938;28;20089;-69
2021/12/24 03:31:31;;;;;;;1.60;1.00;;;;;;;;;;4997055;28;20034;-69
2021/12/24 03:33:56;;;;;;;2.35;1.30;;;;;;;;;;4997803;28;20041;-69
2021/12/24 03:36:22;;;;;;;1.27;1.13;;;;;;;;;;4998638;28;20038;-69
2021/12/24 03:38:47;;;;;;;1.20;1.02;;;;;;;;;;4997476;28;20030;-69
2021/12/24 03:41:13;;;;;;;3.28;1.10;;;;;;;;;;4995994;28;20056;-69
2021/12/24 03:43:38;;;;;;;1.73;1.20;;;;;;;;;;4998565;28;20103;-69
2021/12/24 03:46:08;;;;;;;1.27;1.00;;;;;;;;;;4999179;28;20138;-69
2021/12/24 03:48:47;;;;;;;1.38;1.27;;;;;;;;;;4997057;28;20038;-69
2021/12/24 03:56:31;;;;;;;1.48;0.90;;;;;;;;;;4995877;28;20073;-69
2021/12/24 03:58:56;;;;;;;2.05;1.00;;;;;;;;;;4995173;28;20054;-69
2021/12/24 04:01:21;;;;;;;3.85;1.15;;;;;;;;;;4996723;28;20073;-69
2021/12/24 04:03:47;;;;;;;0.90;0.90;;;;;;;;;;4998182;28;20141;-70
2021/12/24 04:06:12;;;;;;;1.60;1.10;;;;;;;;;;4996964;28;20462;-69
2021/12/24 04:08:37;;;;;;;1.17;0.95;;;;;;;;;;4995306;28;20030;-69
2021/12/24 04:11:04;;;;;;;2.20;0.90;;;;;;;;;;4996883;28;20040;-69
2021/12/24 04:13:30;;;;;;;1.00;1.00;;;;;;;;;;4994479;28;20040;-69
2021/12/24 04:15:55;;;;;;;1.65;1.10;;;;;;;;;;4995307;28;20026;-69
2021/12/24 04:18:50;;;;;;;3.15;1.00;;;;;;;;;;4996382;28;20022;-69
2021/12/24 04:26:34;;;;;;;4.47;0.90;;;;;;;;;;4981130;28;20110;-69
2021/12/24 04:29:00;;;;;;;1.10;0.95;;;;;;;;;;4997419;28;20030;-69
2021/12/24 04:31:54;;;;;;;2.20;1.20;;;;;;;;;;4996113;28;20394;-69
2021/12/24 04:34:12;;;;;;;1.98;1.00;;;;;;;;;;4995652;28;20615;-69
2021/12/24 04:37:04;;;;;;;1.23;0.80;;;;;;;;;;5000676;28;20400;-69
2021/12/24 04:51:00;;;;;;;0.93;0.80;;;;;;;;;;5000054;28;20045;-69
2021/12/24 05:01:13;;;;;;;0.90;0.90;;;;;;;;;;4999065;28;20520;-70
2021/12/24 05:03:41;;;;;;;0.83;0.80;;;;;;;;;;5000853;28;20506;-69
2021/12/24 05:08:49;;;;;;;1.98;0.90;;;;;;;;;;4999762;28;20030;-69
2021/12/24 05:11:15;;;;;;;1.10;0.95;;;;;;;;;;4998903;28;20017;-69
2021/12/24 05:13:40;;;;;;;0.82;0.75;;;;;;;;;;4998892;28;20121;-69
2021/12/24 05:16:38;;;;;;;1.50;0.98;;;;;;;;;;4999112;28;20525;-69
2021/12/24 05:21:32;;;;;;;1.60;0.85;;;;;;;;;;4999144;28;20129;-69
2021/12/24 05:21:45;;;;;;;1.15;0.82;;;;;;;;;;5000276;28;20113;-69
2021/12/24 05:24:13;;;;;;;1.00;0.90;;;;;;;;;;4999552;28;20148;-69
2021/12/24 05:26:38;;;;;;;3.45;0.80;;;;;;;;;;4981904;28;20515;-69
2021/12/24 05:29:04;;;;;;;0.90;0.90;;;;;;;;;;4998955;28;20035;-69
2021/12/24 05:31:29;;;;;;;0.90;0.90;;;;;;;;;;4998674;28;20050;-69
2021/12/24 05:33:54;;;;;;;1.15;0.80;;;;;;;;;;4981882;28;20026;-69
2021/12/24 05:36:20;;;;;;;0.90;0.90;;;;;;;;;;4998522;28;20118;-69
2021/12/24 05:38:46;;;;;;;0.80;0.80;;;;;;;;;;4999105;28;20095;-69
2021/12/24 05:41:12;;;;;;;1.58;1.00;;;;;;;;;;4999259;28;20026;-69
2021/12/24 05:43:37;;;;;;;2.10;0.90;;;;;;;;;;4997559;28;20088;-69
2021/12/24 05:46:03;;;;;;;1.88;0.90;;;;;;;;;;4998399;28;20082;-69
2021/12/24 05:48:29;;;;;;;1.38;1.00;;;;;;;;;;4999230;28;20154;-69
2021/12/24 05:50:54;;;;;;;2.35;0.90;;;;;;;;;;4999711;28;20500;-69
2021/12/24 05:53:20;;;;;;;0.90;0.90;;;;;;;;;;4998925;28;20124;-69
2021/12/24 05:55:45;;;;;;;0.80;0.80;;;;;;;;;;4998014;28;20033;-69
2021/12/24 05:58:10;;;;;;;1.08;1.08;;;;;;;;;;4997186;28;20018;-69
2021/12/24 06:00:38;;;;;;;0.80;0.80;;;;;;;;;;4998297;28;20035;-69
2021/12/24 06:03:03;;;;;;;1.05;0.90;;;;;;;;;;4999856;28;21094;-69
2021/12/24 06:05:28;;;;;;;1.05;0.90;;;;;;;;;;4999516;28;20034;-69
2021/12/24 06:07:54;;;;;;;0.90;0.90;;;;;;;;;;4999191;28;20041;-69
2021/12/24 06:10:19;;;;;;;2.05;0.90;;;;;;;;;;4998236;28;20026;-69
2021/12/24 06:12:44;;;;;;;0.98;0.98;;;;;;;;;;4998077;28;20062;-69
2021/12/24 06:15:10;;;;;;;1.15;1.13;;;;;;;;;;4999544;28;20053;-69
2021/12/24 06:17:38;;;;;;;1.08;0.85;;;;;;;;;;4998938;28;20034;-69
2021/12/24 06:20:07;;;;;;;0.90;0.90;;;;;;;;;;4998650;28;20041;-69
2021/12/24 06:22:32;;;;;;;0.88;0.88;;;;;;;;;;4997843;28;20038;-68
2021/12/24 06:24:58;;;;;;;1.02;0.85;;;;;;;;;;5000325;28;20104;-69
2021/12/24 06:27:23;;;;;;;0.80;0.80;;;;;;;;;;4998248;28;20378;-67
2021/12/24 06:29:48;;;;;;;1.17;0.93;;;;;;;;;;5000277;28;20037;-68
2021/12/24 06:32:14;;;;;;;1.42;1.08;;;;;;;;;;4998989;28;21254;-69
2021/12/24 06:34:39;;;;;;;0.80;0.80;;;;;;;;;;4996864;28;20578;-68
2021/12/24 06:37:04;;;;;;;0.90;0.90;;;;;;;;;;4996295;28;20025;-68
2021/12/24 06:39:30;;;;;;;1.00;1.00;;;;;;;;;;4999260;28;20373;-67
2021/12/24 06:41:55;;;;;;;0.80;0.80;;;;;;;;;;4999132;28;20076;-68
2021/12/24 06:44:21;;;;;;;1.30;0.98;;;;;;;;;;4980666;28;20504;-68
2021/12/24 06:46:47;;;;;;;1.77;1.08;;;;;;;;;;4997778;28;20065;-68
2021/12/24 06:49:13;;;;;;;1.00;1.00;;;;;;;;;;4994356;28;20440;-68
2021/12/24 06:51:38;;;;;;;0.90;0.90;;;;;;;;;;4997295;28;20030;-68
2021/12/24 06:54:04;;;;;;;0.90;0.90;;;;;;;;;;4998469;28;20042;-67
2021/12/24 06:56:29;;;;;;;2.05;1.00;;;;;;;;;;4998988;28;20140;-68
2021/12/24 06:58:54;;;;;;;1.30;1.20;;;;;;;;;;4998241;28;20030;-68
2021/12/24 07:01:20;;;;;;;1.00;1.00;;;;;;;;;;4998502;28;20034;-68
2021/12/24 07:03:45;;;;;;;1.02;0.90;;;;;;;;;;4980362;28;20033;-68
2021/12/24 07:06:11;;;;;;;0.95;0.95;;;;;;;;;;4996299;28;20030;-68
2021/12/24 07:08:36;;;;;;;2.85;1.25;;;;;;;;;;4995972;28;20026;-68
2021/12/24 07:11:01;;;;;;;1.02;1.02;;;;;;;;;;4996913;28;20022;-69
2021/12/24 07:13:27;;;;;;;1.00;0.95;;;;;;;;;;4996964;28;20037;-68
2021/12/24 07:15:52;;;;;;;1.65;1.00;;;;;;;;;;4996200;28;20069;-68
2021/12/24 07:18:17;;;;;;;1.15;1.05;;;;;;;;;;4994789;28;20108;-68
2021/12/24 07:20:43;;;;;;;1.05;1.00;;;;;;;;;;4988221;28;20405;-68
2021/12/24 07:23:08;;;;;;;1.77;0.90;;;;;;;;;;4977105;28;20042;-69
2021/12/24 07:25:34;;;;;;;3.42;1.33;;;;;;;;;;4996040;28;20040;-69
2021/12/24 07:28:00;;;;;;;1.58;0.90;;;;;;;;;;4995798;28;20058;-69
2021/12/24 07:30:26;;;;;;;1.25;1.15;;;;;;;;;;4976139;28;20453;-68
2021/12/24 07:32:51;;;;;;;1.13;1.10;;;;;;;;;;4995596;28;20113;-69
2021/12/24 07:35:17;;;;;;;1.83;1.05;;;;;;;;;;4995057;28;20041;-69
2021/12/24 07:37:42;;;;;;;1.38;1.15;;;;;;;;;;4993337;28;20018;-69
2021/12/24 07:40:08;;;;;;;1.20;1.13;;;;;;;;;;4994351;28;20519;-69
2021/12/24 07:42:34;;;;;;;0.90;0.90;;;;;;;;;;4994124;28;20030;-69
2021/12/24 07:44:59;;;;;;;1.73;0.80;;;;;;;;;;4976902;28;20062;-69
2021/12/24 07:47:28;;;;;;;1.67;1.10;;;;;;;;;;4994843;28;20107;-69
2021/12/24 07:50:02;;;;;;;1.58;1.10;;;;;;;;;;4996384;28;20461;-69
2021/12/24 07:52:27;;;;;;;0.90;0.90;;;;;;;;;;4968062;28;20195;-69
2021/12/24 07:54:56;;;;;;;0.95;0.90;;;;;;;;;;4989635;28;20160;-69
2021/12/24 07:57:21;;;;;;;0.90;0.90;;;;;;;;;;4977269;28;20500;-69
2021/12/24 07:59:47;;;;;;;2.30;0.80;;;;;;;;;;4995342;28;20026;-69
2021/12/24 08:02:15;;;;;;;2.80;1.10;;;;;;;;;;4993071;28;20663;-68
2021/12/24 08:04:40;;;;;;;0.93;0.93;;;;;;;;;;4994984;28;20030;-68
2021/12/24 08:07:05;;;;;;;1.58;0.80;;;;;;;;;;4991938;28;20036;-68
2021/12/24 08:09:31;;;;;;;0.70;0.70;;;;;;;;;;4994039;28;20088;-68
2021/12/24 08:11:56;;;;;;;3.03;0.90;;;;;;;;;;4996258;28;20045;-68
2021/12/24 08:14:21;;;;;;;0.98;0.98;;;;;;;;;;4996059;28;20091;-69
2021/12/24 08:16:47;;;;;;;1.15;1.00;;;;;;;;;;4999230;28;20050;-68
2021/12/24 08:19:15;;;;;;;1.25;0.80;;;;;;;;;;5000163;28;20108;-69
2021/12/24 08:21:41;;;;;;;1.08;1.08;;;;;;;;;;4995634;28;20372;-69
2021/12/24 08:24:07;;;;;;;0.95;0.90;;;;;;;;;;4983326;28;20028;-69
2021/12/24 08:26:32;;;;;;;2.38;0.95;;;;;;;;;;4999398;28;20096;-69
2021/12/24 08:28:57;;;;;;;3.03;0.90;;;;;;;;;;5000460;28;20633;-69
2021/12/24 08:31:23;;;;;;;1.00;0.88;;;;;;;;;;4995362;28;20108;-69
2021/12/24 08:33:48;;;;;;;1.63;0.82;;;;;;;;;;4997488;28;20509;-69
2021/12/24 08:36:13;;;;;;;0.80;0.80;;;;;;;;;;4998292;28;20099;-69
2021/12/24 08:38:39;;;;;;;1.20;1.02;;;;;;;;;;4993895;28;20046;-69
2021/12/24 08:41:04;;;;;;;0.93;0.80;;;;;;;;;;4996845;28;20022;-69
2021/12/24 08:43:30;;;;;;;0.65;0.65;;;;;;;;;;4996767;28;20088;-69
2021/12/24 08:45:55;;;;;;;0.90;0.90;;;;;;;;;;4996678;28;20044;-68
2021/12/24 08:48:20;;;;;;;0.80;0.80;;;;;;;;;;4997009;28;20061;-69
2021/12/24 08:50:46;;;;;;;1.13;0.95;;;;;;;;;;4994949;28;20450;-69
2021/12/24 08:53:12;;;;;;;1.00;1.00;;;;;;;;;;4995573;28;20444;-68
2021/12/24 08:55:37;;;;;;;1.17;1.08;;;;;;;;;;4995951;28;20034;-69
2021/12/24 08:58:03;;;;;;;1.30;1.20;;;;;;;;;;4993272;28;20040;-68
2021/12/24 09:00:28;;;;;;;1.25;1.15;;;;;;;;;;4992122;28;20100;-69
2021/12/24 09:02:54;;;;;;;1.85;1.10;;;;;;;;;;4997548;28;20337;-69
2021/12/24 09:05:19;;;;;;;1.13;0.93;;;;;;;;;;4991802;28;20084;-68
2021/12/24 09:07:44;;;;;;;0.90;0.90;;;;;;;;;;4994326;28;20540;-69
2021/12/24 09:10:10;;;;;;;1.10;1.00;;;;;;;;;;4996846;28;20149;-69
2021/12/24 09:12:36;;;;;;;1.13;1.00;;;;;;;;;;4995165;28;20365;-69
2021/12/24 09:15:02;;;;;;;7.03;1.17;;;;;;;;;;4996596;28;20037;-69
2021/12/24 09:17:29;;;;;;;1.13;1.02;;;;;;;;;;4996436;28;20030;-68
2021/12/24 09:19:55;;;;;;;1.75;1.20;;;;;;;;;;4993136;28;20105;-69
2021/12/24 09:22:28;;;;;;;1.10;1.00;;;;;;;;;;4994300;28;20029;-68
2021/12/24 09:24:54;;;;;;;1.95;1.27;;;;;;;;;;4998398;28;20380;-69
2021/12/24 09:27:20;;;;;;;1.02;0.90;;;;;;;;;;4997042;28;20125;-69
2021/12/24 09:29:45;;;;;;;0.98;0.98;;;;;;;;;;4994235;28;20141;-69
2021/12/24 09:32:10;;;;;;;1.80;1.10;;;;;;;;;;4993000;28;20125;-68
2021/12/24 09:34:36;;;;;;;3.83;0.93;;;;;;;;;;4997146;28;20070;-69
2021/12/24 09:37:01;;;;;;;2.53;1.17;;;;;;;;;;4995431;28;20038;-69
2021/12/24 09:39:27;;;;;;;2.53;1.20;;;;;;;;;;4997286;28;20030;-69
2021/12/24 09:41:52;;;;;;;2.15;1.10;;;;;;;;;;4997703;28;20025;-69
2021/12/24 09:44:17;;;;;;;1.45;1.10;;;;;;;;;;4996354;28;20088;-69
2021/12/24 09:46:43;;;;;;;2.75;1.20;;;;;;;;;;4995502;28;20484;-68
2021/12/24 09:49:12;;;;;;;1.20;1.00;;;;;;;;;;4995856;28;20149;-68
2021/12/24 09:51:40;;;;;;;2.17;1.30;;;;;;;;;;4993961;28;20036;-68
2021/12/24 09:54:24;;;;;;;1.00;0.90;;;;;;;;;;4995602;28;20116;-69
2021/12/24 09:56:51;;;;;;;1.02;0.98;;;;;;;;;;4976705;28;20513;-68
2021/12/24 09:59:16;;;;;;;4.30;1.02;;;;;;;;;;4994146;28;20172;-69
2021/12/24 10:01:44;;;;;;;1.42;1.33;;;;;;;;;;4996475;28;20428;-68
2021/12/24 10:04:12;;;;;;;1.40;1.08;;;;;;;;;;4967856;28;20112;-68
2021/12/24 10:06:38;;;;;;;3.38;1.00;;;;;;;;;;4994306;28;20034;-69
2021/12/24 10:09:09;;;;;;;1.48;1.38;;;;;;;;;;4997546;28;20559;-68
2021/12/24 10:11:49;;;;;;;1.00;1.00;;;;;;;;;;5014480;28;20033;-69
2021/12/24 10:14:16;;;;;;;1.30;1.10;;;;;;;;;;4998664;28;20069;-69
2021/12/24 10:16:45;;;;;;;1.55;1.10;;;;;;;;;;4996864;28;20547;-69
2021/12/24 10:19:10;;;;;;;1.67;1.10;;;;;;;;;;4997760;28;20029;-69
2021/12/24 10:21:35;;;;;;;1.10;1.00;;;;;;;;;;4997849;28;20033;-70
2021/12/24 10:24:03;;;;;;;1.13;1.05;;;;;;;;;;4999578;28;20034;-69
2021/12/24 10:26:29;;;;;;;1.23;1.10;;;;;;;;;;4997773;28;20084;-69
2021/12/24 10:28:56;;;;;;;1.15;1.08;;;;;;;;;;4997575;28;20523;-69
2021/12/24 10:31:24;;;;;;;2.35;0.98;;;;;;;;;;4995205;28;20045;-69
2021/12/24 10:34:16;;;;;;;1.30;1.20;;;;;;;;;;4998203;28;20032;-68
2021/12/24 10:37:05;;;;;;;1.33;1.23;;;;;;;;;;4996633;28;20065;-69
2021/12/24 10:39:38;;;;;;;0.98;0.98;;;;;;;;;;4996880;28;20018;-69
2021/12/24 10:42:13;;;;;;;2.58;1.50;;;;;;;;;;4997450;28;20165;-69
2021/12/24 10:44:40;;;;;;;2.30;1.30;;;;;;;;;;4996070;28;20034;-69
2021/12/24 10:47:25;;;;;;;2.25;1.40;;;;;;;;;;4997442;28;20435;-69
2021/12/24 10:50:00;;;;;;;3.55;1.20;;;;;;;;;;4996639;28;20029;-69
2021/12/24 10:52:42;;;;;;;3.17;1.45;;;;;;;;;;4998025;28;20069;-68
2021/12/24 10:55:09;;;;;;;1.27;1.10;;;;;;;;;;4997456;28;20057;-69
2021/12/24 10:57:35;;;;;;;3.05;1.23;;;;;;;;;;4997811;28;20030;-69
2021/12/24 11:00:13;;;;;;;4.75;1.40;;;;;;;;;;4996237;28;20034;-69
2021/12/24 11:02:38;;;;;;;1.13;1.10;;;;;;;;;;4996619;28;20103;-69
2021/12/24 11:05:04;;;;;;;1.10;1.05;;;;;;;;;;4996299;28;20038;-69
2021/12/24 11:07:36;;;;;;;1.30;1.15;;;;;;;;;;4996863;28;20868;-69
2021/12/24 11:10:12;;;;;;;1.23;1.13;;;;;;;;;;4997120;28;20026;-69
2021/12/24 11:12:39;;;;;;;1.42;1.30;;;;;;;;;;4997093;28;20515;-69
2021/12/24 11:15:49;;;;;;;1.98;1.30;;;;;;;;;;4995410;28;20594;-68
2021/12/24 11:18:18;;;;;;;1.38;1.20;;;;;;;;;;4914001;29;20498;-69
2021/12/24 11:20:44;;;;;;;3.13;1.48;;;;;;;;;;4986258;28;20093;-69
2021/12/24 11:23:10;;;;;;;1.42;1.23;;;;;;;;;;4995207;28;20022;-68
2021/12/24 11:25:40;;;;;;;4.82;1.30;;;;;;;;;;4997043;28;20029;-68
2021/12/24 11:28:07;;;;;;;1.40;1.30;;;;;;;;;;4995114;28;20022;-69
2021/12/24 11:30:33;;;;;;;1.55;1.20;;;;;;;;;;4993816;28;20038;-69
2021/12/24 11:32:59;;;;;;;1.67;1.58;;;;;;;;;;4995895;28;20023;-69
2021/12/24 11:35:25;;;;;;;1.10;1.10;;;;;;;;;;4994056;28;20053;-69
2021/12/24 11:37:51;;;;;;;2.22;1.40;;;;;;;;;;4995170;28;20059;-68
2021/12/24 11:40:17;;;;;;;3.30;1.20;;;;;;;;;;4996772;28;20063;-69
2021/12/24 11:42:46;;;;;;;1.90;1.30;;;;;;;;;;4995220;28;20061;-69
2021/12/24 11:45:11;;;;;;;1.88;1.20;;;;;;;;;;4992211;28;20511;-69
2021/12/24 11:47:37;;;;;;;1.10;1.02;;;;;;;;;;4994927;28;20034;-69
2021/12/24 11:50:02;;;;;;;1.73;1.63;;;;;;;;;;4991052;28;20035;-69
2021/12/24 11:52:27;;;;;;;1.17;1.17;;;;;;;;;;4979033;28;20531;-69
2021/12/24 11:54:55;;;;;;;2.28;1.77;;;;;;;;;;4992077;28;20027;-69
2021/12/24 11:57:21;;;;;;;1.30;1.20;;;;;;;;;;4992808;28;20129;-69
2021/12/24 11:59:47;;;;;;;1.20;1.10;;;;;;;;;;4993615;28;20038;-69
2021/12/24 12:02:45;;;;;;;1.33;1.10;;;;;;;;;;4974730;28;20045;-69
2021/12/24 12:05:28;;;;;;;2.28;1.00;;;;;;;;;;4931472;28;20385;-69
2021/12/24 12:08:25;;;;;;;2.65;1.10;;;;;;;;;;5010591;28;20054;-69
2021/12/24 12:10:52;;;;;;;1.45;1.20;;;;;;;;;;4993830;28;20033;-69
2021/12/24 12:13:42;;;;;;;1.15;1.10;;;;;;;;;;4976361;28;20109;-68
2021/12/24 12:16:28;;;;;;;1.40;1.30;;;;;;;;;;4982637;28;20058;-68
2021/12/24 12:19:14;;;;;;;1.20;1.15;;;;;;;;;;4992364;28;20038;-68
2021/12/24 12:21:43;;;;;;;2.88;1.35;;;;;;;;;;5011468;28;20042;-67
2021/12/24 12:26:45;;;;;;;1.40;1.30;;;;;;;;;;4995096;28;20030;-67
2021/12/24 12:29:32;;;;;;;1.60;1.45;;;;;;;;;;4992787;28;20030;-68
2021/12/24 12:32:06;;;;;;;1.30;1.20;;;;;;;;;;4990980;28;20065;-67
2021/12/24 12:34:40;;;;;;;1.50;1.40;;;;;;;;;;4995252;28;20404;-67
2021/12/24 12:37:20;;;;;;;2.83;1.70;;;;;;;;;;4995321;28;20030;-67
2021/12/24 12:39:48;;;;;;;1.88;1.00;;;;;;;;;;4996699;28;20488;-67
2021/12/24 12:42:15;;;;;;;1.08;0.93;;;;;;;;;;4995976;28;20053;-67
2021/12/24 12:44:46;;;;;;;1.38;1.17;;;;;;;;;;4994873;28;20037;-67
2021/12/24 12:47:16;;;;;;;1.38;1.27;;;;;;;;;;4997659;28;20508;-67
2021/12/24 12:49:42;;;;;;;1.60;1.10;;;;;;;;;;4997037;28;20693;-67
2021/12/24 12:52:13;;;;;;;1.90;1.40;;;;;;;;;;4995803;28;20030;-67
2021/12/24 12:54:48;;;;;;;1.40;1.30;;;;;;;;;;4997148;28;20072;-67
2021/12/24 12:57:29;;;;;;;1.65;0.95;;;;;;;;;;4998401;28;20026;-67
2021/12/24 13:00:07;;;;;;;1.25;1.15;;;;;;;;;;4998904;28;20041;-67
2021/12/24 13:03:07;;;;;;;1.02;1.02;;;;;;;;;;5000057;28;20049;-67
2021/12/24 13:05:41;;;;;;;1.23;1.13;;;;;;;;;;4999851;28;20073;-67
2021/12/24 13:08:14;;;;;;;1.17;1.10;;;;;;;;;;4999171;28;20026;-67
2021/12/24 13:10:39;;;;;;;1.20;1.10;;;;;;;;;;4999801;28;20064;-67
2021/12/24 13:13:05;;;;;;;2.30;1.65;;;;;;;;;;5000934;28;20476;-67
2021/12/24 13:15:33;;;;;;;2.83;1.67;;;;;;;;;;4998989;28;20034;-67
2021/12/24 13:18:05;;;;;;;6.00;2.63;;;;;;;;;;4999669;28;20061;-67
2021/12/24 13:20:45;;;;;;;4.57;3.83;;;;;;;;;;4999744;28;20039;-67
2021/12/24 13:23:20;;;;;;;2.08;1.88;;;;;;;;;;5000300;28;20415;-67
2021/12/24 13:25:46;;;;;;;4.03;3.60;;;;;;;;;;4999643;28;20030;-67
2021/12/24 13:28:11;;;;;;;5.30;4.25;;;;;;;;;;4997790;28;20035;-67
2021/12/24 13:30:36;;;;;;;4.72;4.20;;;;;;;;;;4998549;28;20411;-66
2021/12/24 13:33:06;;;;;;;1.40;1.30;;;;;;;;;;4999038;28;20781;-67
2021/12/24 13:35:45;;;;;;;5.70;1.40;;;;;;;;;;4999209;28;20022;-67
2021/12/24 13:38:24;;;;;;;1.60;1.00;;;;;;;;;;5000455;28;20026;-67
2021/12/24 13:40:50;;;;;;;2.17;1.70;;;;;;;;;;4999622;28;20042;-67
2021/12/24 13:43:15;;;;;;;1.77;1.67;;;;;;;;;;4999625;28;20496;-67
2021/12/24 13:45:43;;;;;;;1.67;1.10;;;;;;;;;;4997691;28;20104;-67
2021/12/24 13:48:12;;;;;;;1.27;1.20;;;;;;;;;;5000199;28;20048;-67
2021/12/24 13:56:06;;;;;;;2.80;1.87;;;;;;;;;;4997954;28;20103;-67
2021/12/24 13:58:32;;;;;;;1.13;1.13;;;;;;;;;;4999761;28;20279;-67
2021/12/24 14:00:59;;;;;;;1.05;1.00;;;;;;;;;;4998295;28;20048;-67
2021/12/24 14:03:26;;;;;;;2.03;1.20;;;;;;;;;;4997517;28;20038;-67
2021/12/24 14:05:54;;;;;;;1.33;1.20;;;;;;;;;;4998750;28;20053;-67
2021/12/24 14:08:21;;;;;;;2.25;1.25;;;;;;;;;;4997940;28;20021;-67
2021/12/24 14:10:48;;;;;;;1.00;1.00;;;;;;;;;;4997274;28;20030;-67
2021/12/24 14:13:24;;;;;;;1.23;1.20;;;;;;;;;;4998948;28;20382;-68
2021/12/24 14:16:03;;;;;;;1.40;1.30;;;;;;;;;;4997880;28;20061;-68
2021/12/24 14:24:28;;;;;;;3.00;1.30;;;;;;;;;;4997553;28;20030;-68
2021/12/24 14:27:01;;;;;;;1.60;1.50;;;;;;;;;;4983940;28;20467;-67
2021/12/24 14:29:40;;;;;;;2.03;1.92;;;;;;;;;;4998479;28;20026;-68
2021/12/24 14:32:16;;;;;;;2.72;1.25;;;;;;;;;;4995978;28;20080;-67
2021/12/24 14:34:43;;;;;;;1.48;1.38;;;;;;;;;;4997830;28;20034;-68
2021/12/24 14:37:20;;;;;;;2.00;1.58;;;;;;;;;;4997777;28;20354;-68
2021/12/24 14:39:48;;;;;;;1.50;1.40;;;;;;;;;;4997244;28;20500;-68
2021/12/24 14:42:24;;;;;;;1.10;1.10;;;;;;;;;;4995029;28;20034;-68
2021/12/24 14:44:53;;;;;;;2.38;1.30;;;;;;;;;;4997760;28;20026;-68
2021/12/24 14:47:21;;;;;;;1.40;1.30;;;;;;;;;;4998092;28;20053;-69
2021/12/24 14:49:46;;;;;;;1.08;1.08;;;;;;;;;;4997420;28;20021;-69
2021/12/24 14:52:19;;;;;;;1.50;1.40;;;;;;;;;;4996986;28;20030;-69
2021/12/24 14:55:18;;;;;;;1.17;1.13;;;;;;;;;;4994978;28;20261;-69
2021/12/24 14:57:57;;;;;;;1.83;1.52;;;;;;;;;;4996447;28;20030;-68
2021/12/24 15:00:35;;;;;;;2.58;2.38;;;;;;;;;;4995347;28;20052;-69
2021/12/24 15:03:15;;;;;;;1.85;1.52;;;;;;;;;;4995941;28;20044;-69
2021/12/24 15:05:47;;;;;;;2.70;1.40;;;;;;;;;;4995437;28;20160;-69
2021/12/24 15:08:32;;;;;;;1.23;1.13;;;;;;;;;;4994818;28;20045;-69
2021/12/24 15:11:17;;;;;;;2.80;1.38;;;;;;;;;;4993304;28;20018;-69
2021/12/24 15:13:48;;;;;;;1.13;1.13;;;;;;;;;;4996289;28;20045;-69
2021/12/24 15:16:16;;;;;;;1.58;1.30;;;;;;;;;;4996105;28;20432;-69
2021/12/24 15:18:42;;;;;;;1.63;1.40;;;;;;;;;;4995693;28;20034;-69
2021/12/24 15:21:08;;;;;;;2.08;1.70;;;;;;;;;;4997348;28;20504;-69
2021/12/24 15:23:33;;;;;;;1.30;1.20;;;;;;;;;;4998316;28;20077;-69
2021/12/24 15:25:58;;;;;;;2.33;1.25;;;;;;;;;;4996724;28;20031;-69
2021/12/24 15:28:24;;;;;;;3.63;1.30;;;;;;;;;;4997547;28;20038;-68
2021/12/24 15:30:50;;;;;;;4.18;1.42;;;;;;;;;;4996350;28;20137;-69
2021/12/24 15:33:16;;;;;;;3.10;1.50;;;;;;;;;;5000391;28;20445;-68
2021/12/24 15:35:41;;;;;;;2.80;1.80;;;;;;;;;;4996888;28;20080;-69
2021/12/24 15:38:06;;;;;;;3.58;1.90;;;;;;;;;;4992668;28;20034;-67
2021/12/24 15:40:33;;;;;;;1.80;1.50;;;;;;;;;;4994273;28;20029;-68
2021/12/24 15:43:02;;;;;;;2.63;1.55;;;;;;;;;;4995086;28;20075;-68
2021/12/24 15:45:31;;;;;;;3.55;1.80;;;;;;;;;;4995818;28;20041;-70
2021/12/24 15:47:56;;;;;;;1.48;1.38;;;;;;;;;;4991015;28;20022;-70
2021/12/24 15:50:22;;;;;;;3.97;2.08;;;;;;;;;;4989605;28;20034;-70
2021/12/24 15:52:47;;;;;;;3.22;1.52;;;;;;;;;;4989620;28;20026;-70
2021/12/24 15:55:12;;;;;;;2.42;1.45;;;;;;;;;;4990783;28;20417;-70
2021/12/24 15:57:38;;;;;;;1.48;1.27;;;;;;;;;;4990856;28;20529;-70
2021/12/24 16:00:05;;;;;;;1.65;1.48;;;;;;;;;;5001655;28;20112;-70
2021/12/24 16:02:30;;;;;;;1.60;1.50;;;;;;;;;;5008498;28;20038;-70
2021/12/24 16:04:55;;;;;;;1.60;1.50;;;;;;;;;;5010334;28;20513;-70
2021/12/24 16:07:21;;;;;;;6.18;1.85;;;;;;;;;;5010294;28;20529;-70
2021/12/24 16:09:48;;;;;;;1.60;1.50;;;;;;;;;;5008756;28;20041;-67
2021/12/24 16:12:13;;;;;;;2.45;1.80;;;;;;;;;;4993764;28;20118;-70
2021/12/24 16:14:39;;;;;;;1.50;1.40;;;;;;;;;;4990184;28;20105;-70
2021/12/24 16:17:04;;;;;;;1.50;1.40;;;;;;;;;;5010159;28;20022;-69
2021/12/24 16:19:30;;;;;;;2.72;1.77;;;;;;;;;;5009788;28;20098;-69
2021/12/24 16:21:55;;;;;;;6.25;1.90;;;;;;;;;;5009223;28;20022;-70
2021/12/24 16:24:20;;;;;;;1.70;1.60;;;;;;;;;;5010233;28;20036;-70
2021/12/24 16:26:45;;;;;;;1.75;1.65;;;;;;;;;;5008916;28;20061;-70
2021/12/24 16:29:17;;;;;;;1.67;1.20;;;;;;;;;;5008787;28;20456;-70
2021/12/24 16:31:42;;;;;;;2.25;1.38;;;;;;;;;;5010589;28;20502;-70
2021/12/24 16:34:08;;;;;;;1.50;1.40;;;;;;;;;;5013838;28;20036;-69
2021/12/24 16:36:33;;;;;;;3.22;1.65;;;;;;;;;;5013738;28;20064;-69
2021/12/24 16:38:58;;;;;;;1.40;1.33;;;;;;;;;;5013685;28;20033;-69